createdAt,value
2023-02-05T00:02:16.932Z,30.40
2023-02-05T00:04:44.943Z,28.77
2023-02-05T00:07:13.024Z,34.00
2023-02-05T00:09:42.313Z,34.93
2023-02-05T00:12:10.352Z,28.43
2023-02-05T00:14:38.295Z,28.80
2023-02-05T00:17:06.277Z,31.90
2023-02-05T00:19:34.464Z,28.50
2023-02-05T00:22:02.493Z,27.60
2023-02-05T00:24:30.688Z,29.93
2023-02-05T00:27:00.149Z,33.33
2023-02-05T00:29:28.275Z,29.57
2023-02-05T00:31:56.300Z,29.93
2023-02-05T00:34:24.229Z,27.83
2023-02-05T00:36:52.169Z,27.03
2023-02-05T00:39:20.229Z,26.77
2023-02-05T00:41:48.182Z,27.03
2023-02-05T00:44:17.506Z,25.27
2023-02-05T00:46:45.473Z,24.13
2023-02-05T00:49:13.499Z,24.77
2023-02-05T00:51:41.462Z,26.70
2023-02-05T00:54:09.435Z,24.27
2023-02-05T00:56:39.665Z,25.10
2023-02-05T00:59:09.889Z,24.67
2023-02-05T01:01:39.275Z,25.40
2023-02-05T01:04:07.307Z,25.00
2023-02-05T01:06:35.338Z,24.57
2023-02-05T01:11:31.696Z,26.13
2023-02-05T01:13:59.731Z,27.87
2023-02-05T01:16:28.142Z,29.20
2023-02-05T01:18:57.756Z,31.73
2023-02-05T01:21:31.350Z,32.50
2023-02-05T01:24:01.640Z,32.63
2023-02-05T01:26:29.541Z,34.80
2023-02-05T01:28:57.484Z,32.73
2023-02-05T01:31:28.161Z,32.50
2023-02-05T01:33:57.667Z,32.90
2023-02-05T01:36:28.126Z,29.40
2023-02-05T01:38:56.024Z,28.70
2023-02-05T01:41:24.366Z,28.93
2023-02-05T01:44:10.413Z,29.10
2023-02-05T01:46:39.916Z,33.20
2023-02-05T01:49:13.170Z,31.53
2023-02-05T01:51:41.574Z,29.80
2023-02-05T01:54:09.955Z,29.07
2023-02-05T01:56:41.636Z,29.47
2023-02-05T01:59:13.072Z,29.20
2023-02-05T02:01:43.228Z,28.63
2023-02-05T02:04:14.849Z,28.73
2023-02-05T02:06:42.874Z,25.57
2023-02-05T02:09:11.020Z,24.73
2023-02-05T02:11:41.764Z,25.23
2023-02-05T02:14:11.220Z,26.93
2023-02-05T02:16:42.068Z,28.53
2023-02-05T02:19:21.316Z,22.97
2023-02-05T02:22:20.489Z,24.07
2023-02-05T02:25:13.370Z,21.70
2023-02-05T02:27:50.732Z,21.07
2023-02-05T02:30:25.417Z,20.27
2023-02-05T02:33:04.115Z,17.93
2023-02-05T02:35:37.817Z,17.80
2023-02-05T02:38:13.905Z,15.90
2023-02-05T02:40:45.741Z,15.10
2023-02-05T02:43:18.250Z,14.07
2023-02-05T02:45:52.089Z,13.73
2023-02-05T02:48:23.561Z,13.93
2023-02-05T02:50:54.558Z,12.17
2023-02-05T02:53:25.314Z,12.87
2023-02-05T02:55:56.078Z,12.67
2023-02-05T02:58:28.816Z,13.33
2023-02-05T03:00:58.633Z,12.13
2023-02-05T03:03:29.311Z,13.57
2023-02-05T03:06:01.353Z,13.50
2023-02-05T03:08:35.298Z,12.73
2023-02-05T03:11:07.670Z,13.03
2023-02-05T03:13:37.145Z,13.83
2023-02-05T03:16:06.365Z,13.60
2023-02-05T03:18:34.681Z,15.90
2023-02-05T03:21:06.679Z,15.27
2023-02-05T03:23:34.665Z,18.27
2023-02-05T03:26:02.997Z,18.53
2023-02-05T03:28:31.263Z,18.80
2023-02-05T03:31:10.610Z,18.03
2023-02-05T03:33:48.231Z,16.53
2023-02-05T03:36:22.234Z,15.60
2023-02-05T03:39:12.850Z,16.27
2023-02-05T03:41:56.939Z,17.93
2023-02-05T03:44:43.993Z,14.87
2023-02-05T03:47:23.234Z,15.90
2023-02-05T03:49:59.115Z,15.97
2023-02-05T03:52:35.797Z,14.40
2023-02-05T03:55:09.535Z,15.63
2023-02-05T03:57:43.804Z,14.97
2023-02-05T04:00:14.070Z,14.17
2023-02-05T04:02:44.040Z,13.90
2023-02-05T04:05:11.987Z,14.43
2023-02-05T04:07:39.963Z,13.40
2023-02-05T04:10:08.774Z,13.63
2023-02-05T04:12:36.732Z,16.33
2023-02-05T04:15:05.238Z,15.17
2023-02-05T04:17:35.984Z,16.63
2023-02-05T04:20:05.984Z,16.40
2023-02-05T04:22:39.637Z,15.63
2023-02-05T04:25:08.223Z,16.53
2023-02-05T04:27:36.143Z,19.30
2023-02-05T04:30:06.833Z,18.50
2023-02-05T04:32:34.958Z,18.17
2023-02-05T04:35:03.110Z,19.87
2023-02-05T04:37:32.455Z,18.90
2023-02-05T04:40:00.524Z,20.33
2023-02-05T04:42:28.467Z,18.63
2023-02-05T04:44:56.386Z,18.90
2023-02-05T04:47:27.076Z,17.80
2023-02-05T04:49:54.985Z,18.13
2023-02-05T04:52:22.981Z,18.73
2023-02-05T04:54:52.822Z,18.43
2023-02-05T04:57:20.827Z,17.37
2023-02-05T04:59:48.749Z,16.40
2023-02-05T05:02:16.885Z,17.13
2023-02-05T05:04:44.885Z,17.77
2023-02-05T05:07:12.852Z,18.23
2023-02-05T05:09:41.165Z,19.17
2023-02-05T05:12:10.473Z,16.20
2023-02-05T05:14:38.810Z,20.50
2023-02-05T05:17:06.740Z,15.80
2023-02-05T05:19:34.790Z,14.30
2023-02-05T05:22:03.166Z,15.97
2023-02-05T05:24:31.209Z,14.50
2023-02-05T05:27:00.402Z,13.90
2023-02-05T05:29:29.726Z,13.97
2023-02-05T05:32:00.455Z,13.50
2023-02-05T05:34:28.656Z,13.43
2023-02-05T05:36:56.636Z,14.33
2023-02-05T05:39:42.287Z,14.13
2023-02-05T05:42:29.285Z,14.47
2023-02-05T05:44:58.708Z,14.60
2023-02-05T05:47:26.721Z,14.73
2023-02-05T05:49:54.759Z,14.83
2023-02-05T05:52:22.716Z,13.77
2023-02-05T05:54:50.791Z,12.17
2023-02-05T05:57:21.286Z,13.23
2023-02-05T05:59:49.535Z,13.80
2023-02-05T06:02:19.229Z,13.90
2023-02-05T06:04:47.241Z,12.57
2023-02-05T06:07:15.662Z,13.10
2023-02-05T06:09:43.686Z,13.33
2023-02-05T06:12:11.869Z,12.27
2023-02-05T06:14:39.933Z,13.63
2023-02-05T06:17:08.033Z,12.83
2023-02-05T06:19:37.560Z,12.43
2023-02-05T06:22:05.617Z,12.83
2023-02-05T06:24:33.548Z,14.03
2023-02-05T06:27:01.637Z,12.10
2023-02-05T06:29:29.711Z,13.10
2023-02-05T06:31:57.708Z,14.07
2023-02-05T06:34:25.641Z,14.27
2023-02-05T06:36:55.871Z,16.00
2023-02-05T06:39:25.244Z,15.37
2023-02-05T06:41:53.386Z,14.90
2023-02-05T06:44:21.539Z,15.50
2023-02-05T06:46:52.707Z,14.73
2023-02-05T06:49:29.797Z,16.80
2023-02-05T06:51:59.061Z,16.53
2023-02-05T06:54:27.092Z,15.30
2023-02-05T06:56:55.160Z,14.97
2023-02-05T06:59:23.343Z,15.37
2023-02-05T07:01:51.543Z,16.10
2023-02-05T07:04:19.654Z,15.80
2023-02-05T07:06:47.584Z,15.60
2023-02-05T07:09:17.013Z,16.60
2023-02-05T07:11:44.927Z,15.03
2023-02-05T07:14:12.968Z,15.73
2023-02-05T07:16:41.168Z,15.27
2023-02-05T07:19:09.186Z,16.07
2023-02-05T07:21:37.178Z,15.20
2023-02-05T07:24:05.501Z,15.43
2023-02-05T07:26:35.973Z,16.00
2023-02-05T07:29:04.628Z,15.77
2023-02-05T07:31:32.868Z,16.20
2023-02-05T07:34:00.976Z,16.07
2023-02-05T07:36:28.907Z,15.30
2023-02-05T07:38:56.899Z,15.83
2023-02-05T07:41:26.945Z,14.17
2023-02-05T07:43:56.354Z,15.67
2023-02-05T07:46:24.848Z,16.27
2023-02-05T07:48:53.071Z,15.63
2023-02-05T07:51:23.465Z,15.63
2023-02-05T07:53:52.038Z,16.77
2023-02-05T07:56:21.777Z,16.60
2023-02-05T07:58:49.974Z,16.60
2023-02-05T08:01:19.311Z,16.13
2023-02-05T08:03:47.339Z,15.67
2023-02-05T08:06:17.026Z,16.57
2023-02-05T08:08:45.166Z,17.00
2023-02-05T08:11:16.006Z,16.97
2023-02-05T08:13:44.495Z,16.90
2023-02-05T08:16:15.677Z,15.40
2023-02-05T08:18:49.261Z,16.57
2023-02-05T08:21:17.559Z,16.57
2023-02-05T08:23:45.509Z,22.90
2023-02-05T08:26:15.029Z,18.07
2023-02-05T08:28:43.956Z,18.20
2023-02-05T08:31:13.041Z,16.77
2023-02-05T08:33:41.441Z,16.73
2023-02-05T08:36:12.937Z,16.67
2023-02-05T08:38:40.850Z,16.30
2023-02-05T08:41:13.399Z,16.03
2023-02-05T08:43:42.846Z,14.70
2023-02-05T08:46:12.179Z,16.17
2023-02-05T08:48:40.218Z,17.17
2023-02-05T08:51:12.278Z,15.97
2023-02-05T08:53:41.350Z,16.60
2023-02-05T08:56:10.740Z,34.40
2023-02-05T08:58:39.711Z,23.50
2023-02-05T09:01:13.178Z,18.30
2023-02-05T09:03:41.461Z,19.37
2023-02-05T09:06:13.942Z,17.93
2023-02-05T09:08:42.125Z,17.20
2023-02-05T09:11:10.858Z,52.10
2023-02-05T09:13:39.155Z,24.00
2023-02-05T09:16:07.712Z,17.67
2023-02-05T09:18:35.609Z,21.43
2023-02-05T09:21:08.102Z,21.20
2023-02-05T09:23:38.135Z,20.27
2023-02-05T09:26:08.479Z,18.80
2023-02-05T09:28:37.446Z,16.67
2023-02-05T09:31:10.744Z,15.73
2023-02-05T09:33:39.077Z,16.13
2023-02-05T09:36:08.792Z,19.13
2023-02-05T09:38:38.141Z,14.57
2023-02-05T09:41:09.762Z,13.80
2023-02-05T09:43:49.703Z,14.80
2023-02-05T09:46:27.221Z,14.77
2023-02-05T09:49:00.886Z,15.97
2023-02-05T09:51:35.520Z,16.03
2023-02-05T09:54:17.181Z,14.77
2023-02-05T09:56:46.990Z,16.97
2023-02-05T09:59:18.409Z,18.30
2023-02-05T10:02:22.000Z,16.37
2023-02-05T10:04:52.465Z,14.90
2023-02-05T10:07:33.401Z,16.10
2023-02-05T10:10:22.445Z,16.17
2023-02-05T10:13:18.919Z,17.10
2023-02-05T10:15:58.251Z,19.13
2023-02-05T10:18:36.387Z,15.30
2023-02-05T10:21:15.927Z,15.93
2023-02-05T10:24:05.379Z,15.10
2023-02-05T10:26:42.299Z,15.70
2023-02-05T10:29:22.906Z,14.67
2023-02-05T10:32:03.249Z,15.17
2023-02-05T10:34:47.458Z,13.80
2023-02-05T10:37:19.341Z,14.17
2023-02-05T10:39:48.278Z,13.97
2023-02-05T10:42:27.409Z,19.37
2023-02-05T10:45:02.481Z,15.93
2023-02-05T10:47:46.211Z,15.30
2023-02-05T10:50:25.562Z,13.90
2023-02-05T10:52:53.638Z,15.00
2023-02-05T10:55:24.678Z,13.73
2023-02-05T10:57:54.200Z,12.80
2023-02-05T11:00:24.276Z,14.13
2023-02-05T11:02:55.064Z,15.43
2023-02-05T11:05:27.667Z,17.17
2023-02-05T11:07:55.930Z,14.37
2023-02-05T11:10:26.222Z,14.67
2023-02-05T11:12:59.475Z,16.27
2023-02-05T11:15:30.030Z,12.57
2023-02-05T11:18:01.371Z,13.37
2023-02-05T11:20:32.507Z,9.77
2023-02-05T11:23:17.613Z,10.37
2023-02-05T11:25:54.150Z,9.57
2023-02-05T11:28:29.496Z,10.23
2023-02-05T11:30:58.501Z,10.33
2023-02-05T11:33:31.335Z,9.97
2023-02-05T11:36:05.777Z,8.47
2023-02-05T11:38:45.169Z,9.07
2023-02-05T11:41:16.859Z,13.17
2023-02-05T11:43:52.076Z,10.10
2023-02-05T11:46:23.052Z,11.10
2023-02-05T11:48:57.292Z,9.77
2023-02-05T11:51:44.769Z,11.27
2023-02-05T11:54:21.529Z,9.93
2023-02-05T11:57:05.085Z,10.17
2023-02-05T11:59:35.271Z,11.80
2023-02-05T12:02:29.645Z,10.07
2023-02-05T12:05:02.213Z,10.93
2023-02-05T12:07:34.425Z,10.80
2023-02-05T12:10:02.412Z,10.17
2023-02-05T12:12:36.996Z,9.70
2023-02-05T12:15:16.572Z,12.03
2023-02-05T12:17:58.429Z,9.87
2023-02-05T12:20:29.985Z,9.20
2023-02-05T12:23:35.340Z,9.30
2023-02-05T12:26:27.494Z,8.27
2023-02-05T12:29:08.311Z,8.30
2023-02-05T12:31:56.945Z,9.13
2023-02-05T12:34:33.372Z,8.63
2023-02-05T12:37:10.669Z,8.43
2023-02-05T12:39:45.463Z,9.00
2023-02-05T12:42:30.632Z,8.43
2023-02-05T12:45:18.189Z,9.07
2023-02-05T12:48:06.062Z,10.63
2023-02-05T12:50:59.432Z,9.63
2023-02-05T12:53:39.824Z,56.47
2023-02-05T12:56:35.071Z,12.23
2023-02-05T12:59:13.535Z,10.73
2023-02-05T13:01:46.436Z,16.70
2023-02-05T13:04:28.230Z,9.70
2023-02-05T13:07:05.744Z,8.17
2023-02-05T13:09:44.450Z,7.53
2023-02-05T13:12:15.646Z,7.37
2023-02-05T13:14:49.485Z,7.67
2023-02-05T13:17:21.878Z,8.50
2023-02-05T13:19:55.621Z,8.00
2023-02-05T13:22:44.234Z,8.57
2023-02-05T13:25:38.878Z,7.77
2023-02-05T13:28:41.726Z,7.07
2023-02-05T13:31:23.532Z,7.67
2023-02-05T13:33:52.883Z,8.33
2023-02-05T13:37:06.198Z,8.30
2023-02-05T13:39:58.257Z,8.60
2023-02-05T13:42:54.787Z,8.57
2023-02-05T13:46:07.036Z,8.13
2023-02-05T13:49:05.113Z,8.17
2023-02-05T13:51:49.589Z,7.20
2023-02-05T13:54:52.710Z,7.33
2023-02-05T13:57:52.480Z,8.17
2023-02-05T14:00:20.915Z,7.97
2023-02-05T14:02:50.623Z,8.33
2023-02-05T14:05:30.257Z,8.93
2023-02-05T14:08:03.223Z,9.17
2023-02-05T14:10:35.047Z,9.13
2023-02-05T14:13:19.703Z,9.40
2023-02-05T14:15:47.918Z,9.47
2023-02-05T14:18:51.277Z,10.23
2023-02-05T14:22:04.980Z,9.87
2023-02-05T14:24:51.311Z,10.17
2023-02-05T14:27:55.571Z,10.27
2023-02-05T14:30:49.841Z,11.00
2023-02-05T14:33:34.151Z,10.67
2023-02-05T14:36:33.437Z,11.73
2023-02-05T14:39:04.555Z,10.23
2023-02-05T14:41:50.460Z,9.60
2023-02-05T14:44:23.743Z,9.10
2023-02-05T14:47:05.646Z,10.10
2023-02-05T14:49:41.908Z,8.27
2023-02-05T14:52:26.710Z,9.93
2023-02-05T14:55:00.321Z,9.30
2023-02-05T14:57:33.412Z,10.83
2023-02-05T15:00:06.374Z,11.30
2023-02-05T15:03:02.484Z,9.97
2023-02-05T15:05:38.937Z,9.77
2023-02-05T15:08:14.607Z,10.03
2023-02-05T15:10:54.706Z,10.30
2023-02-05T15:13:24.863Z,9.60
2023-02-05T15:16:19.654Z,10.20
2023-02-05T15:18:49.494Z,9.47
2023-02-05T15:21:26.246Z,9.23
2023-02-05T15:24:00.380Z,10.40
2023-02-05T15:26:37.241Z,8.80
2023-02-05T15:29:10.386Z,10.27
2023-02-05T15:31:45.504Z,9.83
2023-02-05T15:34:30.872Z,10.10
2023-02-05T15:37:06.531Z,9.83
2023-02-05T15:39:42.832Z,10.40
2023-02-05T15:42:17.008Z,9.33
2023-02-05T15:44:45.013Z,10.53
2023-02-05T15:47:19.887Z,10.17
2023-02-05T15:49:50.617Z,9.80
2023-02-05T15:52:21.917Z,10.17
2023-02-05T15:54:51.592Z,10.00
2023-02-05T15:57:23.141Z,10.47
2023-02-05T15:59:52.936Z,10.47
2023-02-05T16:02:24.485Z,10.87
2023-02-05T16:04:58.400Z,10.80
2023-02-05T16:07:29.428Z,10.83
2023-02-05T16:09:59.003Z,11.00
2023-02-05T16:12:27.780Z,11.53
2023-02-05T16:15:02.681Z,11.40
2023-02-05T16:17:39.187Z,11.57
2023-02-05T16:20:26.666Z,11.33
2023-02-05T16:22:58.956Z,11.20
2023-02-05T16:25:41.457Z,11.50
2023-02-05T16:28:18.050Z,12.20
2023-02-05T16:30:51.145Z,13.20
2023-02-05T16:33:30.068Z,12.67
2023-02-05T16:36:00.976Z,13.43
2023-02-05T16:38:29.351Z,12.57
2023-02-05T16:40:59.938Z,12.17
2023-02-05T16:43:31.953Z,13.33
2023-02-05T16:46:26.338Z,12.80
2023-02-05T16:48:58.168Z,14.50
2023-02-05T16:51:35.602Z,12.93
2023-02-05T16:54:23.258Z,13.00
2023-02-05T16:56:56.471Z,12.90
2023-02-05T16:59:27.288Z,12.53
2023-02-05T17:01:55.708Z,12.30
2023-02-05T17:04:34.733Z,10.33
2023-02-05T17:07:05.558Z,9.50
2023-02-05T17:09:36.857Z,10.23
2023-02-05T17:12:41.651Z,8.83
2023-02-05T17:15:44.835Z,9.80
2023-02-05T17:18:21.986Z,10.37
2023-02-05T17:20:51.368Z,11.50
2023-02-05T17:23:19.721Z,10.60
2023-02-05T17:25:55.813Z,13.90
2023-02-05T17:28:26.074Z,12.10
2023-02-05T17:30:57.818Z,13.57
2023-02-05T17:33:27.282Z,12.53
2023-02-05T17:35:56.886Z,13.00
2023-02-05T17:38:25.034Z,11.50
2023-02-05T17:41:13.440Z,11.40
2023-02-05T17:43:41.663Z,12.50
2023-02-05T17:46:13.450Z,13.07
2023-02-05T17:48:41.533Z,13.43
2023-02-05T17:51:19.387Z,10.77
2023-02-05T17:53:47.498Z,12.57
2023-02-05T17:56:16.128Z,14.10
2023-02-05T17:58:44.363Z,15.57
2023-02-05T18:01:15.385Z,12.67
2023-02-05T18:03:43.459Z,13.17
2023-02-05T18:06:15.192Z,11.43
2023-02-05T18:08:44.151Z,11.73
2023-02-05T18:11:15.212Z,12.13
2023-02-05T18:13:43.159Z,15.03
2023-02-05T18:16:12.353Z,15.37
2023-02-05T18:18:41.061Z,14.20
2023-02-05T18:21:09.066Z,13.60
2023-02-05T18:23:38.582Z,14.90
2023-02-05T18:26:07.210Z,13.53
2023-02-05T18:28:35.864Z,14.13
2023-02-05T18:31:07.026Z,13.57
2023-02-05T18:33:35.661Z,15.33
2023-02-05T18:36:07.824Z,14.40
2023-02-05T18:38:36.182Z,15.43
2023-02-05T18:41:11.368Z,15.03
2023-02-05T18:43:40.028Z,15.97
2023-02-05T18:46:09.305Z,13.10
2023-02-05T18:48:37.759Z,12.53
2023-02-05T18:51:06.918Z,13.43
2023-02-05T18:53:35.524Z,14.67
2023-02-05T18:56:04.540Z,13.87
2023-02-05T18:58:34.405Z,15.60
2023-02-05T19:01:09.326Z,18.83
2023-02-05T19:03:38.843Z,18.37
2023-02-05T19:06:07.618Z,19.50
2023-02-05T19:08:35.941Z,18.67
2023-02-05T19:11:07.994Z,17.10
2023-02-05T19:13:37.874Z,14.60
2023-02-05T19:16:08.087Z,16.47
2023-02-05T19:18:36.218Z,16.37
2023-02-05T19:21:05.954Z,23.33
2023-02-05T19:23:34.321Z,17.53
2023-02-05T19:26:04.411Z,16.97
2023-02-05T19:28:32.755Z,18.93
2023-02-05T19:31:05.065Z,16.50
2023-02-05T19:33:34.224Z,18.13
2023-02-05T19:36:03.602Z,24.67
2023-02-05T19:38:32.247Z,25.93
2023-02-05T19:41:06.547Z,20.03
2023-02-05T19:43:34.965Z,20.20
2023-02-05T19:46:05.209Z,23.43
2023-02-05T19:48:34.665Z,21.80
2023-02-05T19:51:06.325Z,20.73
2023-02-05T19:53:34.793Z,23.47
2023-02-05T19:56:07.020Z,21.73
2023-02-05T19:58:35.422Z,23.20
2023-02-05T20:01:12.192Z,22.20
2023-02-05T20:03:40.622Z,22.07
2023-02-05T20:06:09.990Z,21.40
2023-02-05T20:08:38.091Z,22.07
2023-02-05T20:11:06.863Z,22.03
2023-02-05T20:13:36.383Z,21.80
2023-02-05T20:16:10.446Z,24.47
2023-02-05T20:18:39.159Z,23.80
2023-02-05T20:21:08.106Z,22.60
2023-02-05T20:23:36.536Z,22.97
2023-02-05T20:26:05.501Z,29.07
2023-02-05T20:28:34.988Z,28.60
2023-02-05T20:31:24.385Z,29.87
2023-02-05T20:33:53.749Z,28.40
2023-02-05T20:36:21.671Z,35.73
2023-02-05T20:38:49.723Z,29.80
2023-02-05T20:41:19.320Z,41.03
2023-02-05T20:43:47.383Z,33.83
2023-02-05T20:46:15.379Z,31.67
2023-02-05T20:48:43.736Z,31.00
2023-02-05T20:51:14.744Z,26.97
2023-02-05T20:53:45.280Z,29.80
2023-02-05T20:56:18.028Z,30.80
2023-02-05T20:58:46.234Z,27.77
2023-02-05T21:01:15.841Z,29.57
2023-02-05T21:03:45.359Z,28.07
2023-02-05T21:06:15.246Z,26.47
2023-02-05T21:08:45.510Z,51.93
2023-02-05T21:11:14.283Z,54.27
2023-02-05T21:13:43.322Z,46.30
2023-02-05T21:16:12.292Z,55.70
2023-02-05T21:18:41.764Z,55.67
2023-02-05T21:21:11.265Z,56.60
2023-02-05T21:23:41.449Z,46.70
2023-02-05T21:26:17.740Z,30.97
2023-02-05T21:28:45.675Z,31.47
2023-02-05T21:31:14.005Z,28.43
2023-02-05T21:33:42.021Z,31.40
2023-02-05T21:36:11.978Z,28.77
2023-02-05T21:38:43.481Z,30.03
2023-02-05T21:41:13.200Z,27.33
2023-02-05T21:43:41.784Z,30.07
2023-02-05T21:46:14.338Z,27.03
2023-02-05T21:48:42.320Z,29.10
2023-02-05T21:51:12.542Z,27.70
2023-02-05T21:53:42.878Z,27.43
2023-02-05T21:56:14.751Z,26.00
2023-02-05T21:58:43.108Z,25.20
2023-02-05T22:01:16.667Z,23.77
2023-02-05T22:03:48.689Z,22.23
2023-02-05T22:06:17.162Z,22.30
2023-02-05T22:08:48.410Z,23.43
2023-02-05T22:11:16.405Z,24.23
2023-02-05T22:13:47.415Z,25.07
2023-02-05T22:16:17.325Z,26.20
2023-02-05T22:18:45.339Z,23.27
2023-02-05T22:21:15.186Z,24.53
2023-02-05T22:23:45.015Z,26.13
2023-02-05T22:26:14.822Z,23.33
2023-02-05T22:28:42.780Z,23.53
2023-02-05T22:31:13.177Z,24.67
2023-02-05T22:33:42.805Z,22.80
2023-02-05T22:36:13.543Z,24.93
2023-02-05T22:38:42.593Z,24.10
2023-02-05T22:41:11.355Z,24.53
2023-02-05T22:43:41.083Z,27.20
2023-02-05T22:46:10.650Z,26.87
2023-02-05T22:48:40.074Z,25.57
2023-02-05T22:51:12.510Z,24.67
2023-02-05T22:53:41.029Z,24.53
2023-02-05T22:56:11.016Z,27.27
2023-02-05T22:58:43.437Z,26.53
2023-02-05T23:01:12.756Z,27.43
2023-02-05T23:03:41.703Z,27.63
2023-02-05T23:06:11.378Z,27.90
2023-02-05T23:08:40.053Z,28.93
2023-02-05T23:11:10.551Z,29.53
2023-02-05T23:13:40.054Z,28.97
2023-02-05T23:16:09.607Z,29.30
2023-02-05T23:18:37.926Z,29.37
2023-02-05T23:21:08.842Z,32.00
2023-02-05T23:23:36.838Z,29.20
2023-02-05T23:26:09.650Z,30.17
2023-02-05T23:28:38.010Z,30.40
2023-02-05T23:31:07.692Z,29.77
2023-02-05T23:33:36.421Z,32.30
2023-02-05T23:36:05.815Z,29.07
2023-02-05T23:38:34.413Z,31.80
2023-02-05T23:41:02.632Z,30.47
2023-02-05T23:43:32.827Z,30.57
2023-02-05T23:46:01.336Z,32.03
2023-02-05T23:48:30.838Z,29.93
2023-02-05T23:50:58.795Z,30.33
2023-02-05T23:53:27.114Z,30.13
2023-02-05T23:55:56.366Z,31.57
2023-02-05T23:58:26.065Z,30.17
